sensor_id;sensor_type;location;lat;lon;timestamp;temperature;humidity
17423;DHT22;8829;47.932;7.810;2022-09-13T00:00:47;16.00;99.90
17423;DHT22;8829;47.932;7.810;2022-09-13T00:03:14;15.90;99.90
17423;DHT22;8829;47.932;7.810;2022-09-13T00:05:41;15.80;99.90
17423;DHT22;8829;47.932;7.810;2022-09-13T00:08:09;15.70;99.90
17423;DHT22;8829;47.932;7.810;2022-09-13T00:10:37;15.70;99.90
17423;DHT22;8829;47.932;7.810;2022-09-13T00:13:05;15.60;99.90
17423;DHT22;8829;47.932;7.810;2022-09-13T00:15:33;15.60;99.90
17423;DHT22;8829;47.932;7.810;2022-09-13T00:18:00;15.50;99.90
17423;DHT22;8829;47.932;7.810;2022-09-13T00:20:26;15.50;99.90
17423;DHT22;8829;47.932;7.810;2022-09-13T00:22:53;15.50;99.90
17423;DHT22;8829;47.932;7.810;2022-09-13T00:25:21;15.50;99.90
17423;DHT22;8829;47.932;7.810;2022-09-13T00:27:48;15.40;99.90
17423;DHT22;8829;47.932;7.810;2022-09-13T00:30:14;15.40;99.90
17423;DHT22;8829;47.932;7.810;2022-09-13T00:32:41;15.40;99.90
17423;DHT22;8829;47.932;7.810;2022-09-13T00:35:08;15.30;99.90
17423;DHT22;8829;47.932;7.810;2022-09-13T00:37:34;15.30;99.90
17423;DHT22;8829;47.932;7.810;2022-09-13T00:40:02;15.20;99.90
17423;DHT22;8829;47.932;7.810;2022-09-13T00:42:31;15.20;99.90
17423;DHT22;8829;47.932;7.810;2022-09-13T00:45:00;15.20;99.90
17423;DHT22;8829;47.932;7.810;2022-09-13T00:47:33;15.20;99.90
17423;DHT22;8829;47.932;7.810;2022-09-13T00:50:06;15.30;99.90
17423;DHT22;8829;47.932;7.810;2022-09-13T00:52:37;15.30;99.90
17423;DHT22;8829;47.932;7.810;2022-09-13T00:55:07;15.30;99.90
17423;DHT22;8829;47.932;7.810;2022-09-13T00:57:38;15.20;99.90
17423;DHT22;8829;47.932;7.810;2022-09-13T01:00:09;15.20;99.90
17423;DHT22;8829;47.932;7.810;2022-09-13T01:02:39;15.20;99.90
17423;DHT22;8829;47.932;7.810;2022-09-13T01:05:06;15.20;99.90
17423;DHT22;8829;47.932;7.810;2022-09-13T01:07:34;15.20;99.90
17423;DHT22;8829;47.932;7.810;2022-09-13T01:10:02;14.90;99.90
17423;DHT22;8829;47.932;7.810;2022-09-13T01:12:35;14.90;99.90
17423;DHT22;8829;47.932;7.810;2022-09-13T01:15:05;14.90;99.90
17423;DHT22;8829;47.932;7.810;2022-09-13T01:17:33;14.90;99.90
17423;DHT22;8829;47.932;7.810;2022-09-13T01:20:01;14.90;99.90
17423;DHT22;8829;47.932;7.810;2022-09-13T01:23:13;14.90;99.90
17423;DHT22;8829;47.932;7.810;2022-09-13T01:26:08;14.80;99.90
17423;DHT22;8829;47.932;7.810;2022-09-13T01:29:14;14.80;99.90
17423;DHT22;8829;47.932;7.810;2022-09-13T01:31:52;14.80;99.90
17423;DHT22;8829;47.932;7.810;2022-09-13T01:34:28;14.90;99.90
17423;DHT22;8829;47.932;7.810;2022-09-13T01:37:12;14.90;99.90
17423;DHT22;8829;47.932;7.810;2022-09-13T01:39:57;14.90;99.90
17423;DHT22;8829;47.932;7.810;2022-09-13T01:42:32;14.90;99.90
17423;DHT22;8829;47.932;7.810;2022-09-13T01:45:08;14.80;99.90
17423;DHT22;8829;47.932;7.810;2022-09-13T01:47:49;14.80;99.90
17423;DHT22;8829;47.932;7.810;2022-09-13T01:50:21;14.70;99.90
17423;DHT22;8829;47.932;7.810;2022-09-13T01:52:52;14.60;99.90
17423;DHT22;8829;47.932;7.810;2022-09-13T01:55:28;14.40;99.90
17423;DHT22;8829;47.932;7.810;2022-09-13T01:58:06;14.30;99.90
17423;DHT22;8829;47.932;7.810;2022-09-13T02:00:39;14.40;99.90
17423;DHT22;8829;47.932;7.810;2022-09-13T02:03:13;14.50;99.90
17423;DHT22;8829;47.932;7.810;2022-09-13T02:05:46;14.40;99.90
17423;DHT22;8829;47.932;7.810;2022-09-13T02:08:18;14.50;99.90
17423;DHT22;8829;47.932;7.810;2022-09-13T02:10:49;14.50;99.90
17423;DHT22;8829;47.932;7.810;2022-09-13T02:13:21;14.50;99.90
17423;DHT22;8829;47.932;7.810;2022-09-13T02:15:53;14.60;99.90
17423;DHT22;8829;47.932;7.810;2022-09-13T02:18:26;14.50;99.90
17423;DHT22;8829;47.932;7.810;2022-09-13T02:20:58;14.40;99.90
17423;DHT22;8829;47.932;7.810;2022-09-13T02:23:33;14.50;99.90
17423;DHT22;8829;47.932;7.810;2022-09-13T02:26:02;14.60;99.90
17423;DHT22;8829;47.932;7.810;2022-09-13T02:28:33;14.80;99.90
17423;DHT22;8829;47.932;7.810;2022-09-13T02:31:02;14.80;99.90
17423;DHT22;8829;47.932;7.810;2022-09-13T02:33:34;14.80;99.90
17423;DHT22;8829;47.932;7.810;2022-09-13T02:36:04;14.70;99.90
17423;DHT22;8829;47.932;7.810;2022-09-13T02:38:33;14.60;99.90
17423;DHT22;8829;47.932;7.810;2022-09-13T02:41:15;14.60;99.90
17423;DHT22;8829;47.932;7.810;2022-09-13T02:43:46;14.50;99.90
17423;DHT22;8829;47.932;7.810;2022-09-13T02:46:22;14.50;99.90
17423;DHT22;8829;47.932;7.810;2022-09-13T02:48:58;14.60;99.90
17423;DHT22;8829;47.932;7.810;2022-09-13T02:51:32;14.60;99.90
17423;DHT22;8829;47.932;7.810;2022-09-13T02:54:09;14.60;99.90
17423;DHT22;8829;47.932;7.810;2022-09-13T02:56:44;14.50;99.90
17423;DHT22;8829;47.932;7.810;2022-09-13T02:59:15;14.60;99.90
17423;DHT22;8829;47.932;7.810;2022-09-13T03:01:45;14.50;99.90
17423;DHT22;8829;47.932;7.810;2022-09-13T03:04:14;14.50;99.90
17423;DHT22;8829;47.932;7.810;2022-09-13T03:06:41;14.50;99.90
17423;DHT22;8829;47.932;7.810;2022-09-13T03:09:09;14.50;99.90
17423;DHT22;8829;47.932;7.810;2022-09-13T03:11:46;14.60;99.90
17423;DHT22;8829;47.932;7.810;2022-09-13T03:14:26;14.50;99.90
17423;DHT22;8829;47.932;7.810;2022-09-13T03:17:07;14.50;99.90
17423;DHT22;8829;47.932;7.810;2022-09-13T03:19:52;14.40;99.90
17423;DHT22;8829;47.932;7.810;2022-09-13T03:22:39;14.40;99.90
17423;DHT22;8829;47.932;7.810;2022-09-13T03:25:15;14.50;99.90
17423;DHT22;8829;47.932;7.810;2022-09-13T03:27:51;14.50;99.90
17423;DHT22;8829;47.932;7.810;2022-09-13T03:30:25;14.60;99.90
17423;DHT22;8829;47.932;7.810;2022-09-13T03:33:02;14.70;99.90
17423;DHT22;8829;47.932;7.810;2022-09-13T03:35:36;14.70;99.90
17423;DHT22;8829;47.932;7.810;2022-09-13T03:38:07;14.70;99.90
17423;DHT22;8829;47.932;7.810;2022-09-13T03:40:40;14.60;99.90
17423;DHT22;8829;47.932;7.810;2022-09-13T03:43:12;14.60;99.90
17423;DHT22;8829;47.932;7.810;2022-09-13T03:45:43;14.50;99.90
17423;DHT22;8829;47.932;7.810;2022-09-13T03:48:10;14.50;99.90
17423;DHT22;8829;47.932;7.810;2022-09-13T03:50:39;14.50;99.90
17423;DHT22;8829;47.932;7.810;2022-09-13T03:53:09;14.60;99.90
17423;DHT22;8829;47.932;7.810;2022-09-13T03:55:39;14.60;99.90
17423;DHT22;8829;47.932;7.810;2022-09-13T03:58:09;14.60;99.90
17423;DHT22;8829;47.932;7.810;2022-09-13T04:00:36;14.60;99.90
17423;DHT22;8829;47.932;7.810;2022-09-13T04:03:04;14.60;99.90
17423;DHT22;8829;47.932;7.810;2022-09-13T04:05:31;14.60;99.90
17423;DHT22;8829;47.932;7.810;2022-09-13T04:08:00;14.60;99.90
17423;DHT22;8829;47.932;7.810;2022-09-13T04:10:27;14.50;99.90
17423;DHT22;8829;47.932;7.810;2022-09-13T04:12:56;14.50;99.90
17423;DHT22;8829;47.932;7.810;2022-09-13T04:15:23;14.40;99.90
17423;DHT22;8829;47.932;7.810;2022-09-13T04:17:50;14.50;99.90
17423;DHT22;8829;47.932;7.810;2022-09-13T04:20:17;14.60;99.90
17423;DHT22;8829;47.932;7.810;2022-09-13T04:22:50;14.60;99.90
17423;DHT22;8829;47.932;7.810;2022-09-13T04:25:18;14.60;99.90
17423;DHT22;8829;47.932;7.810;2022-09-13T04:27:44;14.50;99.90
17423;DHT22;8829;47.932;7.810;2022-09-13T04:30:12;14.50;99.90
17423;DHT22;8829;47.932;7.810;2022-09-13T04:32:38;14.50;99.90
17423;DHT22;8829;47.932;7.810;2022-09-13T04:35:07;14.50;99.90
17423;DHT22;8829;47.932;7.810;2022-09-13T04:37:34;14.50;99.90
17423;DHT22;8829;47.932;7.810;2022-09-13T04:40:01;14.50;99.90
17423;DHT22;8829;47.932;7.810;2022-09-13T04:42:29;14.50;99.90
17423;DHT22;8829;47.932;7.810;2022-09-13T04:44:55;14.60;99.90
17423;DHT22;8829;47.932;7.810;2022-09-13T04:47:22;14.60;99.90
17423;DHT22;8829;47.932;7.810;2022-09-13T04:49:49;14.50;99.90
17423;DHT22;8829;47.932;7.810;2022-09-13T04:52:15;14.50;99.90
17423;DHT22;8829;47.932;7.810;2022-09-13T04:54:42;14.50;99.90
17423;DHT22;8829;47.932;7.810;2022-09-13T04:57:09;14.50;99.90
17423;DHT22;8829;47.932;7.810;2022-09-13T04:59:38;14.40;99.90
17423;DHT22;8829;47.932;7.810;2022-09-13T05:02:04;14.20;99.90
17423;DHT22;8829;47.932;7.810;2022-09-13T05:04:31;14.30;99.90
17423;DHT22;8829;47.932;7.810;2022-09-13T05:06:58;14.30;99.90
17423;DHT22;8829;47.932;7.810;2022-09-13T05:09:24;14.10;99.90
17423;DHT22;8829;47.932;7.810;2022-09-13T05:11:51;14.20;99.90
17423;DHT22;8829;47.932;7.810;2022-09-13T05:14:18;14.20;99.90
17423;DHT22;8829;47.932;7.810;2022-09-13T05:16:46;14.30;99.90
17423;DHT22;8829;47.932;7.810;2022-09-13T05:19:12;14.40;99.90
17423;DHT22;8829;47.932;7.810;2022-09-13T05:21:39;14.40;99.90
17423;DHT22;8829;47.932;7.810;2022-09-13T05:24:06;14.50;99.90
17423;DHT22;8829;47.932;7.810;2022-09-13T05:26:34;14.50;99.90
17423;DHT22;8829;47.932;7.810;2022-09-13T05:29:01;14.50;99.90
17423;DHT22;8829;47.932;7.810;2022-09-13T05:31:31;14.60;99.90
17423;DHT22;8829;47.932;7.810;2022-09-13T05:34:00;14.70;99.90
17423;DHT22;8829;47.932;7.810;2022-09-13T05:36:28;14.70;99.90
17423;DHT22;8829;47.932;7.810;2022-09-13T05:38:55;14.80;99.90
17423;DHT22;8829;47.932;7.810;2022-09-13T05:41:22;14.80;99.90
17423;DHT22;8829;47.932;7.810;2022-09-13T05:43:49;14.80;99.90
17423;DHT22;8829;47.932;7.810;2022-09-13T05:46:17;14.80;99.90
17423;DHT22;8829;47.932;7.810;2022-09-13T05:48:45;14.80;99.90
17423;DHT22;8829;47.932;7.810;2022-09-13T05:51:15;14.80;99.90
17423;DHT22;8829;47.932;7.810;2022-09-13T05:53:44;14.90;99.90
17423;DHT22;8829;47.932;7.810;2022-09-13T05:56:13;14.90;99.90
17423;DHT22;8829;47.932;7.810;2022-09-13T05:58:41;15.00;99.90
17423;DHT22;8829;47.932;7.810;2022-09-13T06:01:09;15.10;99.90
17423;DHT22;8829;47.932;7.810;2022-09-13T06:03:36;15.10;99.90
17423;DHT22;8829;47.932;7.810;2022-09-13T06:06:03;15.10;99.90
17423;DHT22;8829;47.932;7.810;2022-09-13T06:08:33;15.20;99.90
17423;DHT22;8829;47.932;7.810;2022-09-13T06:11:02;15.20;99.90
17423;DHT22;8829;47.932;7.810;2022-09-13T06:13:29;15.20;99.90
17423;DHT22;8829;47.932;7.810;2022-09-13T06:15:57;15.30;99.90
17423;DHT22;8829;47.932;7.810;2022-09-13T06:18:24;15.50;99.90
17423;DHT22;8829;47.932;7.810;2022-09-13T06:20:56;15.70;99.90
17423;DHT22;8829;47.932;7.810;2022-09-13T06:23:25;16.20;99.90
17423;DHT22;8829;47.932;7.810;2022-09-13T06:26:00;16.90;99.90
17423;DHT22;8829;47.932;7.810;2022-09-13T06:28:27;17.60;99.90
17423;DHT22;8829;47.932;7.810;2022-09-13T06:30:59;18.10;99.90
17423;DHT22;8829;47.932;7.810;2022-09-13T06:33:25;18.40;99.90
17423;DHT22;8829;47.932;7.810;2022-09-13T06:35:52;19.00;99.90
17423;DHT22;8829;47.932;7.810;2022-09-13T06:38:18;19.70;99.90
17423;DHT22;8829;47.932;7.810;2022-09-13T06:40:45;20.00;99.90
17423;DHT22;8829;47.932;7.810;2022-09-13T06:43:13;19.90;99.90
17423;DHT22;8829;47.932;7.810;2022-09-13T06:45:40;20.20;99.90
17423;DHT22;8829;47.932;7.810;2022-09-13T06:48:07;20.60;99.90
17423;DHT22;8829;47.932;7.810;2022-09-13T06:50:33;21.10;99.90
17423;DHT22;8829;47.932;7.810;2022-09-13T06:53:00;21.60;99.90
17423;DHT22;8829;47.932;7.810;2022-09-13T06:55:26;22.00;99.90
17423;DHT22;8829;47.932;7.810;2022-09-13T06:57:53;22.90;99.90
17423;DHT22;8829;47.932;7.810;2022-09-13T07:00:21;23.80;99.90
17423;DHT22;8829;47.932;7.810;2022-09-13T07:02:50;24.10;99.90
17423;DHT22;8829;47.932;7.810;2022-09-13T07:05:17;24.70;99.90
17423;DHT22;8829;47.932;7.810;2022-09-13T07:07:45;25.50;99.90
17423;DHT22;8829;47.932;7.810;2022-09-13T07:10:12;25.80;99.90
17423;DHT22;8829;47.932;7.810;2022-09-13T07:12:39;25.90;99.90
17423;DHT22;8829;47.932;7.810;2022-09-13T07:15:07;25.70;99.90
17423;DHT22;8829;47.932;7.810;2022-09-13T07:17:35;25.50;99.90
17423;DHT22;8829;47.932;7.810;2022-09-13T07:20:02;25.40;99.90
17423;DHT22;8829;47.932;7.810;2022-09-13T07:22:30;25.50;99.90
17423;DHT22;8829;47.932;7.810;2022-09-13T07:24:57;25.40;99.90
17423;DHT22;8829;47.932;7.810;2022-09-13T07:27:24;25.80;99.90
17423;DHT22;8829;47.932;7.810;2022-09-13T07:29:51;25.70;99.90
17423;DHT22;8829;47.932;7.810;2022-09-13T07:32:17;25.70;99.90
17423;DHT22;8829;47.932;7.810;2022-09-13T07:34:45;26.00;99.90
17423;DHT22;8829;47.932;7.810;2022-09-13T07:37:14;26.20;99.90
17423;DHT22;8829;47.932;7.810;2022-09-13T07:39:40;25.80;99.90
17423;DHT22;8829;47.932;7.810;2022-09-13T07:42:07;25.40;99.90
17423;DHT22;8829;47.932;7.810;2022-09-13T07:44:33;25.10;99.90
17423;DHT22;8829;47.932;7.810;2022-09-13T07:47:00;24.40;99.90
17423;DHT22;8829;47.932;7.810;2022-09-13T07:49:27;23.40;99.90
17423;DHT22;8829;47.932;7.810;2022-09-13T07:51:54;23.00;99.90
17423;DHT22;8829;47.932;7.810;2022-09-13T07:54:21;23.90;99.90
17423;DHT22;8829;47.932;7.810;2022-09-13T07:56:48;24.70;99.90
17423;DHT22;8829;47.932;7.810;2022-09-13T07:59:16;25.60;99.90
17423;DHT22;8829;47.932;7.810;2022-09-13T08:01:45;26.20;99.90
17423;DHT22;8829;47.932;7.810;2022-09-13T08:04:13;25.80;99.90
17423;DHT22;8829;47.932;7.810;2022-09-13T08:06:41;25.80;99.90
17423;DHT22;8829;47.932;7.810;2022-09-13T08:09:10;25.30;99.90
17423;DHT22;8829;47.932;7.810;2022-09-13T08:11:39;25.90;99.90
17423;DHT22;8829;47.932;7.810;2022-09-13T08:14:08;26.50;99.90
17423;DHT22;8829;47.932;7.810;2022-09-13T08:16:35;27.00;99.90
17423;DHT22;8829;47.932;7.810;2022-09-13T08:19:03;27.30;99.90
17423;DHT22;8829;47.932;7.810;2022-09-13T08:21:32;27.80;99.90
17423;DHT22;8829;47.932;7.810;2022-09-13T08:23:59;28.00;99.90
17423;DHT22;8829;47.932;7.810;2022-09-13T08:26:28;28.00;99.90
17423;DHT22;8829;47.932;7.810;2022-09-13T08:28:56;28.20;99.90
17423;DHT22;8829;47.932;7.810;2022-09-13T08:31:23;28.30;99.90
17423;DHT22;8829;47.932;7.810;2022-09-13T08:33:50;28.40;99.90
17423;DHT22;8829;47.932;7.810;2022-09-13T08:36:18;28.70;99.90
17423;DHT22;8829;47.932;7.810;2022-09-13T08:38:46;28.50;99.90
17423;DHT22;8829;47.932;7.810;2022-09-13T08:41:46;28.30;99.90
17423;DHT22;8829;47.932;7.810;2022-09-13T08:44:21;28.10;99.90
17423;DHT22;8829;47.932;7.810;2022-09-13T08:46:52;27.90;99.90
17423;DHT22;8829;47.932;7.810;2022-09-13T08:49:24;27.80;99.90
17423;DHT22;8829;47.932;7.810;2022-09-13T08:51:56;27.80;99.90
17423;DHT22;8829;47.932;7.810;2022-09-13T08:54:24;27.70;99.90
17423;DHT22;8829;47.932;7.810;2022-09-13T08:56:57;27.70;99.90
17423;DHT22;8829;47.932;7.810;2022-09-13T08:59:43;27.70;99.90
17423;DHT22;8829;47.932;7.810;2022-09-13T09:02:22;27.90;99.90
17423;DHT22;8829;47.932;7.810;2022-09-13T09:04:56;28.00;99.90
17423;DHT22;8829;47.932;7.810;2022-09-13T09:07:26;28.10;99.90
17423;DHT22;8829;47.932;7.810;2022-09-13T09:09:57;28.00;99.90
17423;DHT22;8829;47.932;7.810;2022-09-13T09:12:32;27.80;99.90
17423;DHT22;8829;47.932;7.810;2022-09-13T09:15:04;27.80;99.90
17423;DHT22;8829;47.932;7.810;2022-09-13T09:17:43;27.60;99.90
17423;DHT22;8829;47.932;7.810;2022-09-13T09:20:20;27.90;99.90
17423;DHT22;8829;47.932;7.810;2022-09-13T09:22:50;28.00;99.90
17423;DHT22;8829;47.932;7.810;2022-09-13T09:25:17;27.60;99.90
17423;DHT22;8829;47.932;7.810;2022-09-13T09:27:46;27.10;99.90
17423;DHT22;8829;47.932;7.810;2022-09-13T09:30:13;26.50;99.90
17423;DHT22;8829;47.932;7.810;2022-09-13T09:32:49;26.40;99.90
17423;DHT22;8829;47.932;7.810;2022-09-13T09:35:30;26.20;99.90
17423;DHT22;8829;47.932;7.810;2022-09-13T09:38:19;26.00;99.90
17423;DHT22;8829;47.932;7.810;2022-09-13T09:40:50;25.90;99.90
17423;DHT22;8829;47.932;7.810;2022-09-13T09:43:23;25.50;99.90
17423;DHT22;8829;47.932;7.810;2022-09-13T09:45:52;25.20;99.90
17423;DHT22;8829;47.932;7.810;2022-09-13T09:48:23;24.90;99.90
17423;DHT22;8829;47.932;7.810;2022-09-13T09:50:56;24.80;99.90
17423;DHT22;8829;47.932;7.810;2022-09-13T09:53:26;24.80;99.90
17423;DHT22;8829;47.932;7.810;2022-09-13T09:55:57;24.70;99.90
17423;DHT22;8829;47.932;7.810;2022-09-13T09:58:41;24.70;99.90
17423;DHT22;8829;47.932;7.810;2022-09-13T10:01:16;24.90;99.90
17423;DHT22;8829;47.932;7.810;2022-09-13T10:03:49;24.90;99.90
17423;DHT22;8829;47.932;7.810;2022-09-13T10:06:19;25.00;99.90
17423;DHT22;8829;47.932;7.810;2022-09-13T10:08:53;25.10;99.90
17423;DHT22;8829;47.932;7.810;2022-09-13T10:11:21;24.70;99.90
17423;DHT22;8829;47.932;7.810;2022-09-13T10:13:59;24.30;99.90
17423;DHT22;8829;47.932;7.810;2022-09-13T10:16:28;24.20;99.90
17423;DHT22;8829;47.932;7.810;2022-09-13T10:19:16;23.90;99.90
17423;DHT22;8829;47.932;7.810;2022-09-13T10:59:55;25.50;99.90
17423;DHT22;8829;47.932;7.810;2022-09-13T11:02:38;25.80;99.90
17423;DHT22;8829;47.932;7.810;2022-09-13T11:05:15;25.90;99.90
17423;DHT22;8829;47.932;7.810;2022-09-13T11:08:09;26.00;99.90
17423;DHT22;8829;47.932;7.810;2022-09-13T11:10:47;26.10;99.90
17423;DHT22;8829;47.932;7.810;2022-09-13T11:13:22;26.30;99.90
17423;DHT22;8829;47.932;7.810;2022-09-13T11:15:59;26.30;99.90
17423;DHT22;8829;47.932;7.810;2022-09-13T11:18:55;26.50;99.90
17423;DHT22;8829;47.932;7.810;2022-09-13T11:21:37;26.50;99.90
17423;DHT22;8829;47.932;7.810;2022-09-13T11:24:33;26.60;99.90
17423;DHT22;8829;47.932;7.810;2022-09-13T11:27:10;26.70;99.90
17423;DHT22;8829;47.932;7.810;2022-09-13T11:30:07;26.80;99.90
17423;DHT22;8829;47.932;7.810;2022-09-13T11:35:18;26.90;99.90
17423;DHT22;8829;47.932;7.810;2022-09-13T11:37:56;26.90;99.90
17423;DHT22;8829;47.932;7.810;2022-09-13T11:40:37;27.00;99.90
17423;DHT22;8829;47.932;7.810;2022-09-13T11:43:21;27.10;99.90
17423;DHT22;8829;47.932;7.810;2022-09-13T11:45:58;27.20;99.90
17423;DHT22;8829;47.932;7.810;2022-09-13T11:48:40;27.20;99.90
17423;DHT22;8829;47.932;7.810;2022-09-13T11:51:17;27.30;99.90
17423;DHT22;8829;47.932;7.810;2022-09-13T11:54:11;27.20;99.90
17423;DHT22;8829;47.932;7.810;2022-09-13T11:56:46;27.10;99.90
17423;DHT22;8829;47.932;7.810;2022-09-13T11:59:19;27.10;99.90
17423;DHT22;8829;47.932;7.810;2022-09-13T12:01:51;27.20;99.90
17423;DHT22;8829;47.932;7.810;2022-09-13T12:04:23;27.20;99.90
17423;DHT22;8829;47.932;7.810;2022-09-13T12:06:54;27.20;99.90
17423;DHT22;8829;47.932;7.810;2022-09-13T12:09:26;27.20;99.90
17423;DHT22;8829;47.932;7.810;2022-09-13T12:11:58;27.30;99.90
17423;DHT22;8829;47.932;7.810;2022-09-13T12:14:35;27.40;99.90
17423;DHT22;8829;47.932;7.810;2022-09-13T12:17:21;27.40;99.90
17423;DHT22;8829;47.932;7.810;2022-09-13T12:19:52;27.40;99.90
17423;DHT22;8829;47.932;7.810;2022-09-13T12:22:23;27.50;99.90
17423;DHT22;8829;47.932;7.810;2022-09-13T12:24:55;27.40;99.90
17423;DHT22;8829;47.932;7.810;2022-09-13T12:27:26;27.20;99.90
17423;DHT22;8829;47.932;7.810;2022-09-13T12:29:56;27.20;99.90
17423;DHT22;8829;47.932;7.810;2022-09-13T12:32:27;27.20;99.90
17423;DHT22;8829;47.932;7.810;2022-09-13T12:34:59;27.30;99.90
17423;DHT22;8829;47.932;7.810;2022-09-13T12:40:49;27.20;99.90
17423;DHT22;8829;47.932;7.810;2022-09-13T12:43:43;27.20;99.90
17423;DHT22;8829;47.932;7.810;2022-09-13T12:49:20;27.50;99.90
17423;DHT22;8829;47.932;7.810;2022-09-13T12:52:04;27.60;99.90
17423;DHT22;8829;47.932;7.810;2022-09-13T12:55:04;27.70;99.90
17423;DHT22;8829;47.932;7.810;2022-09-13T12:57:41;27.70;99.90
17423;DHT22;8829;47.932;7.810;2022-09-13T13:00:18;27.80;99.90
17423;DHT22;8829;47.932;7.810;2022-09-13T13:02:52;27.90;99.90
17423;DHT22;8829;47.932;7.810;2022-09-13T13:05:25;28.00;99.90
17423;DHT22;8829;47.932;7.810;2022-09-13T13:07:56;28.10;99.90
17423;DHT22;8829;47.932;7.810;2022-09-13T13:10:28;28.20;99.90
17423;DHT22;8829;47.932;7.810;2022-09-13T13:13:08;28.40;99.90
17423;DHT22;8829;47.932;7.810;2022-09-13T13:18:45;28.30;99.90
17423;DHT22;8829;47.932;7.810;2022-09-13T13:21:29;28.10;99.90
17423;DHT22;8829;47.932;7.810;2022-09-13T13:27:34;27.60;99.90
17423;DHT22;8829;47.932;7.810;2022-09-13T13:33:22;27.40;99.90
17423;DHT22;8829;47.932;7.810;2022-09-13T13:35:50;27.30;99.90
17423;DHT22;8829;47.932;7.810;2022-09-13T13:38:41;27.20;99.90
17423;DHT22;8829;47.932;7.810;2022-09-13T13:41:42;27.10;99.90
17423;DHT22;8829;47.932;7.810;2022-09-13T13:50:27;26.60;99.90
17423;DHT22;8829;47.932;7.810;2022-09-13T13:52:56;26.60;99.90
17423;DHT22;8829;47.932;7.810;2022-09-13T13:55:40;26.60;99.90
17423;DHT22;8829;47.932;7.810;2022-09-13T13:58:26;26.50;99.90
17423;DHT22;8829;47.932;7.810;2022-09-13T14:00:55;26.40;99.90
17423;DHT22;8829;47.932;7.810;2022-09-13T14:03:31;26.50;99.90
17423;DHT22;8829;47.932;7.810;2022-09-13T14:06:09;26.60;99.90
17423;DHT22;8829;47.932;7.810;2022-09-13T14:08:43;26.70;99.90
17423;DHT22;8829;47.932;7.810;2022-09-13T14:11:23;26.60;99.90
17423;DHT22;8829;47.932;7.810;2022-09-13T14:14:03;26.60;99.90
17423;DHT22;8829;47.932;7.810;2022-09-13T14:16:40;26.50;99.90
17423;DHT22;8829;47.932;7.810;2022-09-13T14:19:23;26.50;99.90
17423;DHT22;8829;47.932;7.810;2022-09-13T14:22:09;26.50;99.90
17423;DHT22;8829;47.932;7.810;2022-09-13T14:24:39;26.50;99.90
17423;DHT22;8829;47.932;7.810;2022-09-13T14:27:13;26.60;99.90
17423;DHT22;8829;47.932;7.810;2022-09-13T14:29:44;26.70;99.90
17423;DHT22;8829;47.932;7.810;2022-09-13T14:32:15;26.70;99.90
17423;DHT22;8829;47.932;7.810;2022-09-13T14:34:51;26.60;99.90
17423;DHT22;8829;47.932;7.810;2022-09-13T14:37:24;26.60;99.90
17423;DHT22;8829;47.932;7.810;2022-09-13T14:39:56;26.60;99.90
17423;DHT22;8829;47.932;7.810;2022-09-13T14:42:23;26.50;99.90
17423;DHT22;8829;47.932;7.810;2022-09-13T14:44:50;26.50;99.90
17423;DHT22;8829;47.932;7.810;2022-09-13T14:47:21;26.40;99.90
17423;DHT22;8829;47.932;7.810;2022-09-13T14:49:54;26.30;99.90
17423;DHT22;8829;47.932;7.810;2022-09-13T14:52:27;26.20;99.90
17423;DHT22;8829;47.932;7.810;2022-09-13T14:54:57;26.20;99.90
17423;DHT22;8829;47.932;7.810;2022-09-13T14:57:27;26.10;99.90
17423;DHT22;8829;47.932;7.810;2022-09-13T14:59:57;26.00;99.90
17423;DHT22;8829;47.932;7.810;2022-09-13T15:02:28;26.00;99.90
17423;DHT22;8829;47.932;7.810;2022-09-13T15:04:57;25.90;99.90
17423;DHT22;8829;47.932;7.810;2022-09-13T15:07:29;25.90;99.90
17423;DHT22;8829;47.932;7.810;2022-09-13T15:09:57;25.80;99.90
17423;DHT22;8829;47.932;7.810;2022-09-13T15:12:26;25.70;99.90
17423;DHT22;8829;47.932;7.810;2022-09-13T15:15:23;25.60;99.90
17423;DHT22;8829;47.932;7.810;2022-09-13T15:17:53;25.60;99.90
17423;DHT22;8829;47.932;7.810;2022-09-13T15:20:22;25.50;99.90
17423;DHT22;8829;47.932;7.810;2022-09-13T15:22:51;25.50;99.90
17423;DHT22;8829;47.932;7.810;2022-09-13T15:25:26;25.30;99.90
17423;DHT22;8829;47.932;7.810;2022-09-13T15:27:53;25.20;99.90
17423;DHT22;8829;47.932;7.810;2022-09-13T15:30:23;25.10;99.90
17423;DHT22;8829;47.932;7.810;2022-09-13T15:33:04;25.10;99.90
17423;DHT22;8829;47.932;7.810;2022-09-13T15:35:35;25.10;99.90
17423;DHT22;8829;47.932;7.810;2022-09-13T15:38:23;25.10;99.90
17423;DHT22;8829;47.932;7.810;2022-09-13T15:41:01;24.90;99.90
17423;DHT22;8829;47.932;7.810;2022-09-13T15:43:28;24.70;99.90
17423;DHT22;8829;47.932;7.810;2022-09-13T15:45:56;24.80;99.90
17423;DHT22;8829;47.932;7.810;2022-09-13T15:48:26;24.80;99.90
17423;DHT22;8829;47.932;7.810;2022-09-13T15:51:10;24.90;99.90
17423;DHT22;8829;47.932;7.810;2022-09-13T15:53:39;25.00;99.90
17423;DHT22;8829;47.932;7.810;2022-09-13T15:56:07;25.20;99.90
17423;DHT22;8829;47.932;7.810;2022-09-13T15:58:35;25.30;99.90
17423;DHT22;8829;47.932;7.810;2022-09-13T16:01:02;25.40;99.90
17423;DHT22;8829;47.932;7.810;2022-09-13T16:03:30;25.50;99.90
17423;DHT22;8829;47.932;7.810;2022-09-13T16:05:57;25.50;99.90
17423;DHT22;8829;47.932;7.810;2022-09-13T16:08:24;25.50;99.90
17423;DHT22;8829;47.932;7.810;2022-09-13T16:10:52;25.50;99.90
17423;DHT22;8829;47.932;7.810;2022-09-13T16:13:19;25.40;99.90
17423;DHT22;8829;47.932;7.810;2022-09-13T16:15:45;25.20;99.90
17423;DHT22;8829;47.932;7.810;2022-09-13T16:18:13;25.10;99.90
17423;DHT22;8829;47.932;7.810;2022-09-13T16:20:40;24.90;99.90
17423;DHT22;8829;47.932;7.810;2022-09-13T16:23:08;24.80;99.90
17423;DHT22;8829;47.932;7.810;2022-09-13T16:25:35;24.60;99.90
17423;DHT22;8829;47.932;7.810;2022-09-13T16:28:03;24.40;99.90
17423;DHT22;8829;47.932;7.810;2022-09-13T16:30:31;24.40;99.90
17423;DHT22;8829;47.932;7.810;2022-09-13T16:32:58;24.30;99.90
17423;DHT22;8829;47.932;7.810;2022-09-13T16:35:26;24.20;99.90
17423;DHT22;8829;47.932;7.810;2022-09-13T16:37:54;24.20;99.90
17423;DHT22;8829;47.932;7.810;2022-09-13T16:40:22;24.10;99.90
17423;DHT22;8829;47.932;7.810;2022-09-13T16:42:49;24.00;99.90
17423;DHT22;8829;47.932;7.810;2022-09-13T16:45:17;23.90;99.90
17423;DHT22;8829;47.932;7.810;2022-09-13T16:47:44;23.80;99.90
17423;DHT22;8829;47.932;7.810;2022-09-13T16:50:12;23.70;99.90
17423;DHT22;8829;47.932;7.810;2022-09-13T16:52:39;23.70;99.90
17423;DHT22;8829;47.932;7.810;2022-09-13T16:55:06;23.60;99.90
17423;DHT22;8829;47.932;7.810;2022-09-13T16:57:34;23.60;99.90
17423;DHT22;8829;47.932;7.810;2022-09-13T17:00:02;23.50;99.90
17423;DHT22;8829;47.932;7.810;2022-09-13T17:02:34;23.40;99.90
17423;DHT22;8829;47.932;7.810;2022-09-13T17:05:01;23.30;99.90
17423;DHT22;8829;47.932;7.810;2022-09-13T17:07:28;23.10;99.90
17423;DHT22;8829;47.932;7.810;2022-09-13T17:09:54;23.00;99.90
17423;DHT22;8829;47.932;7.810;2022-09-13T17:12:21;23.00;99.90
17423;DHT22;8829;47.932;7.810;2022-09-13T17:14:48;22.80;99.90
17423;DHT22;8829;47.932;7.810;2022-09-13T17:17:16;22.70;99.90